Time;durP1;ratioP1;P1;durP2;ratioP2;P2;SDS_P1;SDS_P2;PMS_P1;PMS_P2;Temp;Humidity;BMP_temperature;BMP_pressure;BME280_temperature;BME280_humidity;BME280_pressure;Samples;Min_cycle;Max_cycle;Signal;HPM_P1;HPM_P2
2022/08/01 00:01:14;;;;;;;22.55;13.18;;;18.00;99.90;;;;;;4963489;28;210613;-67
2022/08/01 00:03:40;;;;;;;24.45;13.93;;;18.00;99.90;;;;;;4996560;28;158897;-67
2022/08/01 00:06:06;;;;;;;26.30;14.00;;;18.00;99.90;;;;;;4966300;28;208945;-67
2022/08/01 00:08:33;;;;;;;27.73;14.05;;;18.00;99.90;;;;;;4964152;28;119519;-67
2022/08/01 00:10:59;;;;;;;25.15;13.52;;;17.90;99.90;;;;;;4961245;28;209698;-67
2022/08/01 00:13:25;;;;;;;24.55;13.38;;;17.90;99.90;;;;;;4982100;28;63403;-67
2022/08/01 00:15:51;;;;;;;26.83;13.98;;;17.90;99.90;;;;;;4966611;28;206535;-67
2022/08/01 00:18:17;;;;;;;23.73;12.48;;;17.90;99.90;;;;;;4997615;28;122593;-68
2022/08/01 00:20:43;;;;;;;22.55;11.82;;;17.90;99.90;;;;;;4955947;28;213170;-67
2022/08/01 00:23:09;;;;;;;22.75;11.60;;;17.90;99.90;;;;;;5067615;28;20052;-67
2022/08/01 00:25:35;;;;;;;19.95;11.27;;;17.90;99.90;;;;;;5018456;28;209928;-66
2022/08/01 00:28:02;;;;;;;24.20;10.52;;;17.90;99.90;;;;;;5051432;28;20047;-66
2022/08/01 00:30:28;;;;;;;18.83;10.30;;;17.90;99.90;;;;;;5018229;28;244741;-66
2022/08/01 00:32:54;;;;;;;16.90;9.52;;;17.90;99.90;;;;;;5006644;28;207456;-66
2022/08/01 00:35:20;;;;;;;17.85;9.43;;;17.80;99.90;;;;;;5039649;28;114178;-66
2022/08/01 00:37:46;;;;;;;16.52;9.85;;;17.90;99.90;;;;;;5027903;28;205439;-66
2022/08/01 00:40:12;;;;;;;18.55;10.43;;;17.90;99.90;;;;;;5036867;28;232340;-67
2022/08/01 00:42:38;;;;;;;16.92;9.85;;;17.80;99.90;;;;;;5027333;28;206286;-66
2022/08/01 00:45:05;;;;;;;19.08;9.88;;;17.80;99.90;;;;;;5053265;28;170220;-66
2022/08/01 00:47:31;;;;;;;17.95;10.02;;;17.80;99.90;;;;;;5013830;28;215741;-67
2022/08/01 00:49:57;;;;;;;21.17;10.60;;;17.80;99.90;;;;;;5036656;28;257441;-66
2022/08/01 00:52:23;;;;;;;18.08;10.50;;;17.80;99.90;;;;;;5028117;28;208602;-66
2022/08/01 00:54:50;;;;;;;20.40;11.75;;;17.80;99.90;;;;;;5058737;28;54273;-66
2022/08/01 00:57:17;;;;;;;22.10;11.60;;;17.80;99.90;;;;;;5014278;28;206460;-66
2022/08/01 00:59:43;;;;;;;21.33;11.13;;;17.80;99.90;;;;;;5022736;28;109831;-66
2022/08/01 01:02:09;;;;;;;26.75;13.13;;;17.80;99.90;;;;;;5010595;28;206164;-66
2022/08/01 01:04:35;;;;;;;26.58;12.48;;;17.80;99.90;;;;;;5039617;28;186294;-66
2022/08/01 01:07:13;;;;;;;21.05;10.07;;;17.80;99.90;;;;;;5006298;28;207007;-66
2022/08/01 01:10:00;;;;;;;19.25;8.60;;;17.80;99.90;;;;;;5027864;28;127621;-66
2022/08/01 01:12:41;;;;;;;13.77;6.20;;;17.80;99.90;;;;;;5013450;28;211072;-66
2022/08/01 01:15:15;;;;;;;16.05;6.57;;;17.80;99.90;;;;;;5058988;28;34401;-67
2022/08/01 01:17:59;;;;;;;14.18;6.30;;;17.70;99.90;;;;;;5009273;28;205687;-67
2022/08/01 01:20:38;;;;;;;17.48;6.20;;;17.70;99.90;;;;;;5054336;28;128962;-67
2022/08/01 01:23:37;;;;;;;12.02;5.25;;;17.70;99.90;;;;;;4994881;28;207644;-67
2022/08/01 01:26:15;;;;;;;14.35;4.90;;;17.70;99.90;;;;;;4993073;28;209865;-67
2022/08/01 01:28:56;;;;;;;10.18;4.53;;;17.70;99.90;;;;;;5026587;28;167662;-67
2022/08/01 01:31:25;;;;;;;13.77;4.82;;;17.70;99.90;;;;;;5022876;28;208920;-67
2022/08/01 01:33:53;;;;;;;13.50;4.60;;;17.70;99.90;;;;;;5042126;28;20044;-67
2022/08/01 01:36:21;;;;;;;12.48;4.75;;;17.70;99.90;;;;;;5008378;28;206461;-67
2022/08/01 01:38:49;;;;;;;13.85;4.85;;;17.70;99.90;;;;;;5039105;28;108785;-67
2022/08/01 01:41:17;;;;;;;14.63;5.40;;;17.70;99.90;;;;;;5011010;28;207023;-68
2022/08/01 01:43:45;;;;;;;13.20;5.65;;;17.70;99.90;;;;;;5057608;28;46431;-67
2022/08/01 01:46:19;;;;;;;11.88;4.93;;;17.70;99.90;;;;;;5008666;28;212044;-67
2022/08/01 01:48:46;;;;;;;11.88;5.00;;;17.70;99.90;;;;;;5041168;28;49229;-67
2022/08/01 01:51:13;;;;;;;12.65;5.28;;;17.70;99.90;;;;;;5026089;28;207843;-67
2022/08/01 01:53:40;;;;;;;12.75;5.05;;;17.70;99.90;;;;;;5035288;28;215645;-68
2022/08/01 01:56:08;;;;;;;15.75;5.70;;;17.70;99.90;;;;;;5007187;28;206459;-68
2022/08/01 01:58:36;;;;;;;18.80;5.65;;;17.70;99.90;;;;;;5033040;28;274836;-68
2022/08/01 02:01:03;;;;;;;11.05;5.22;;;17.70;99.90;;;;;;5025089;28;206371;-67
2022/08/01 02:03:31;;;;;;;11.90;5.00;;;17.70;99.90;;;;;;5017675;28;284378;-67
2022/08/01 02:05:59;;;;;;;12.60;5.32;;;17.70;99.90;;;;;;5009556;28;206238;-67
2022/08/01 02:08:26;;;;;;;11.48;4.72;;;17.70;99.90;;;;;;5048796;28;250709;-69
2022/08/01 02:13:42;;;;;;;13.13;4.90;;;17.70;99.90;;;;;;5058212;28;60982;-67
2022/08/01 02:16:11;;;;;;;10.13;3.83;;;17.70;99.90;;;;;;5000808;28;210251;-67
2022/08/01 02:18:37;;;;;;;15.50;4.13;;;17.60;99.90;;;;;;5049665;28;258302;-67
2022/08/01 02:21:07;;;;;;;12.43;3.70;;;17.60;99.90;;;;;;5020467;28;207203;-68
2022/08/01 02:23:36;;;;;;;10.23;3.83;;;17.60;99.90;;;;;;5032173;28;269552;-67
2022/08/01 02:26:14;;;;;;;11.02;3.05;;;17.50;99.90;;;;;;5010811;28;206189;-67
2022/08/01 02:28:52;;;;;;;10.52;3.38;;;17.40;99.90;;;;;;5054639;28;134792;-68
2022/08/01 02:31:21;;;;;;;15.25;3.10;;;17.40;99.90;;;;;;5001259;28;205746;-67
2022/08/01 02:34:02;;;;;;;14.27;3.47;;;17.40;99.90;;;;;;5039001;28;93303;-68
2022/08/01 02:36:30;;;;;;;13.65;3.38;;;17.40;99.90;;;;;;5010991;28;209584;-67
2022/08/01 02:39:00;;;;;;;12.75;3.25;;;17.40;99.90;;;;;;5038043;28;140286;-67
2022/08/01 02:41:28;;;;;;;16.45;3.22;;;17.40;99.90;;;;;;5006222;28;206500;-68
2022/08/01 02:44:00;;;;;;;17.25;3.58;;;17.40;99.90;;;;;;5042817;28;22494;-67
2022/08/01 02:46:56;;;;;;;13.52;3.17;;;17.40;99.90;;;;;;5023877;28;206747;-68
2022/08/01 02:49:25;;;;;;;18.25;3.13;;;17.30;99.90;;;;;;5032470;28;191507;-67
2022/08/01 02:51:54;;;;;;;11.65;3.15;;;17.30;99.90;;;;;;5006834;28;207707;-67
2022/08/01 02:54:22;;;;;;;11.60;2.97;;;17.30;99.90;;;;;;5031766;28;50193;-68
2022/08/01 02:56:51;;;;;;;14.13;3.17;;;17.30;99.90;;;;;;5006040;28;206312;-68
2022/08/01 02:59:21;;;;;;;11.73;2.90;;;17.30;99.90;;;;;;5039603;28;182670;-67
2022/08/01 03:01:49;;;;;;;16.05;3.10;;;17.30;99.90;;;;;;5005299;28;207102;-68
2022/08/01 03:04:17;;;;;;;12.57;2.88;;;17.30;99.90;;;;;;5029597;28;106638;-68
2022/08/01 03:06:45;;;;;;;14.70;3.65;;;17.30;99.90;;;;;;5027754;28;206010;-67
2022/08/01 03:09:12;;;;;;;12.35;2.58;;;17.20;99.90;;;;;;5039350;28;205223;-68
2022/08/01 03:11:41;;;;;;;16.55;3.10;;;17.20;99.90;;;;;;5030015;28;205427;-67
2022/08/01 03:14:10;;;;;;;13.07;3.10;;;17.20;99.90;;;;;;5042626;28;107056;-67
2022/08/01 03:16:39;;;;;;;16.00;3.25;;;17.20;99.90;;;;;;5025275;28;216984;-68
2022/08/01 03:19:08;;;;;;;14.55;3.00;;;17.20;99.90;;;;;;5037966;28;237420;-67
2022/08/01 03:21:35;;;;;;;16.25;3.30;;;17.10;99.90;;;;;;5009494;28;213527;-67
2022/08/01 03:24:02;;;;;;;14.02;3.10;;;17.10;99.90;;;;;;5039372;28;188901;-67
2022/08/01 03:26:31;;;;;;;13.70;3.13;;;17.10;99.90;;;;;;5010390;28;206866;-68
2022/08/01 03:29:10;;;;;;;15.25;3.60;;;17.10;99.90;;;;;;5042249;28;118163;-68
2022/08/01 03:31:38;;;;;;;19.48;3.80;;;17.00;99.90;;;;;;5009502;28;205693;-67
2022/08/01 03:34:05;;;;;;;18.85;3.83;;;17.00;99.90;;;;;;5044170;28;20047;-68
2022/08/01 03:36:34;;;;;;;16.27;3.60;;;17.00;99.90;;;;;;5028424;28;200851;-67
2022/08/01 03:39:03;;;;;;;17.33;4.60;;;16.90;99.90;;;;;;5038443;28;23319;-67
2022/08/01 03:41:35;;;;;;;17.30;4.30;;;16.90;99.90;;;;;;4990787;28;214642;-67
2022/08/01 03:44:05;;;;;;;23.30;4.70;;;16.90;99.90;;;;;;5033196;28;146351;-67
2022/08/01 03:46:44;;;;;;;15.88;4.10;;;16.90;99.90;;;;;;5025542;28;154977;-67
2022/08/01 03:49:30;;;;;;;22.85;4.35;;;16.90;99.90;;;;;;5036569;28;88108;-67
2022/08/01 03:51:58;;;;;;;19.58;4.53;;;16.90;99.90;;;;;;5008227;28;206809;-67
2022/08/01 03:54:30;;;;;;;18.02;4.38;;;16.80;99.90;;;;;;5041012;28;96776;-67
2022/08/01 03:56:58;;;;;;;17.88;3.63;;;16.90;99.90;;;;;;5011048;28;209566;-67
2022/08/01 03:59:25;;;;;;;19.73;4.55;;;16.80;99.90;;;;;;5045567;28;80730;-68
2022/08/01 04:01:51;;;;;;;19.17;4.30;;;16.80;99.90;;;;;;5007367;28;216255;-68
2022/08/01 04:04:17;;;;;;;15.10;4.15;;;16.80;99.90;;;;;;5028500;28;157828;-68
2022/08/01 04:06:44;;;;;;;17.77;4.18;;;16.80;99.90;;;;;;5011235;28;206132;-68
2022/08/01 04:09:11;;;;;;;18.10;5.20;;;16.80;99.90;;;;;;5041878;28;65810;-67
2022/08/01 04:11:38;;;;;;;16.73;4.40;;;16.80;99.90;;;;;;5017265;28;213923;-67
2022/08/01 04:14:04;;;;;;;20.15;4.85;;;16.80;99.90;;;;;;5042602;28;55128;-68
2022/08/01 04:16:30;;;;;;;16.92;4.38;;;16.80;99.90;;;;;;5004643;28;206983;-68
2022/08/01 04:18:56;;;;;;;18.17;4.90;;;16.80;99.90;;;;;;5038168;28;188198;-68
2022/08/01 04:21:30;;;;;;;20.02;4.40;;;16.80;99.90;;;;;;5022919;28;205865;-68
2022/08/01 04:24:03;;;;;;;15.88;4.30;;;16.80;99.90;;;;;;5044348;28;20056;-67
2022/08/01 04:26:31;;;;;;;16.98;4.80;;;16.80;99.90;;;;;;5010759;28;206804;-67
2022/08/01 04:29:01;;;;;;;15.00;3.92;;;16.90;99.90;;;;;;5042846;28;69588;-67
2022/08/01 04:31:28;;;;;;;20.15;4.50;;;16.80;99.90;;;;;;5011599;28;206813;-67
2022/08/01 04:33:56;;;;;;;19.17;4.70;;;16.80;99.90;;;;;;5055349;28;160689;-67
2022/08/01 04:36:24;;;;;;;21.95;4.70;;;16.80;99.90;;;;;;5016956;28;206877;-67
2022/08/01 04:38:55;;;;;;;12.45;4.00;;;16.80;99.90;;;;;;5023068;28;53361;-68
2022/08/01 04:41:23;;;;;;;15.23;3.78;;;16.80;99.90;;;;;;4994533;28;212402;-68
2022/08/01 04:43:51;;;;;;;17.98;4.35;;;16.80;99.90;;;;;;5040460;28;116909;-68
2022/08/01 04:46:18;;;;;;;16.02;4.20;;;16.80;99.90;;;;;;4999112;28;212377;-68
2022/08/01 04:48:45;;;;;;;17.52;4.68;;;16.80;99.90;;;;;;5029408;28;161415;-66
2022/08/01 04:51:17;;;;;;;21.20;4.43;;;16.80;99.90;;;;;;5006454;28;205828;-67
2022/08/01 04:53:46;;;;;;;21.13;4.60;;;16.80;99.90;;;;;;5059237;28;47039;-67
2022/08/01 04:56:13;;;;;;;24.38;4.32;;;16.80;99.90;;;;;;5009674;28;209961;-67
2022/08/01 04:58:43;;;;;;;17.17;4.40;;;16.80;99.90;;;;;;5056920;28;118791;-67
2022/08/01 05:01:10;;;;;;;19.77;3.97;;;16.80;99.90;;;;;;5010152;28;205998;-67
2022/08/01 05:03:37;;;;;;;19.85;4.30;;;16.80;99.90;;;;;;5018175;28;267561;-67
2022/08/01 05:06:03;;;;;;;17.27;3.90;;;16.80;99.90;;;;;;5021964;28;206989;-67
2022/08/01 05:08:29;;;;;;;17.10;3.97;;;16.80;99.90;;;;;;5033962;28;252438;-67
2022/08/01 05:10:55;;;;;;;20.38;4.07;;;16.70;99.90;;;;;;5034654;28;209746;-67
2022/08/01 05:13:22;;;;;;;15.27;3.67;;;16.80;99.90;;;;;;5032255;28;255313;-67
2022/08/01 05:15:48;;;;;;;13.75;3.60;;;16.70;99.90;;;;;;5002564;28;209251;-67
2022/08/01 05:18:14;;;;;;;18.85;4.05;;;16.70;99.90;;;;;;5050027;28;20502;-68
2022/08/01 05:20:41;;;;;;;20.53;4.10;;;16.70;99.90;;;;;;4995712;28;208262;-68
2022/08/01 05:23:07;;;;;;;20.80;4.00;;;16.70;99.90;;;;;;5050002;28;20044;-67
2022/08/01 05:25:33;;;;;;;17.75;3.95;;;16.80;99.90;;;;;;5008040;28;215950;-66
2022/08/01 05:27:59;;;;;;;18.10;4.38;;;16.80;99.90;;;;;;5050123;28;206947;-67
2022/08/01 05:30:25;;;;;;;16.55;3.70;;;16.80;99.90;;;;;;5056874;28;65558;-67
2022/08/01 05:32:51;;;;;;;21.95;4.10;;;16.70;99.90;;;;;;5026551;28;206407;-68
2022/08/01 05:35:17;;;;;;;18.13;4.10;;;16.80;99.90;;;;;;5040584;28;62246;-68
2022/08/01 05:37:44;;;;;;;17.05;4.00;;;16.80;99.90;;;;;;5007979;28;212831;-68
2022/08/01 05:40:10;;;;;;;24.63;4.53;;;16.80;99.90;;;;;;5038959;28;135352;-67
2022/08/01 05:42:36;;;;;;;22.20;4.20;;;16.80;99.90;;;;;;5010161;28;206009;-67
2022/08/01 05:45:03;;;;;;;19.60;3.83;;;16.70;99.90;;;;;;5040390;28;116553;-67
2022/08/01 05:47:29;;;;;;;21.75;4.18;;;16.70;99.90;;;;;;5005321;28;206407;-67
2022/08/01 05:49:55;;;;;;;20.83;4.15;;;16.70;99.90;;;;;;5062122;28;254574;-67
2022/08/01 05:52:21;;;;;;;22.40;3.90;;;16.70;99.90;;;;;;5001699;28;237275;-67
2022/08/01 05:54:47;;;;;;;21.33;3.35;;;16.70;99.90;;;;;;5033888;28;258977;-67
2022/08/01 05:57:13;;;;;;;23.85;4.05;;;16.70;99.90;;;;;;5002541;28;209077;-67
2022/08/01 05:59:39;;;;;;;23.55;4.13;;;16.70;99.90;;;;;;5039846;28;87818;-67
2022/08/01 06:02:06;;;;;;;19.23;3.55;;;16.70;99.90;;;;;;5005881;28;207093;-67
2022/08/01 06:04:32;;;;;;;20.55;4.10;;;16.80;99.90;;;;;;5020486;28;203664;-67
2022/08/01 06:06:58;;;;;;;20.02;3.75;;;16.70;99.90;;;;;;5006235;28;212479;-66
2022/08/01 06:09:24;;;;;;;21.52;3.95;;;16.70;99.90;;;;;;5041757;28;43557;-66
2022/08/01 06:11:50;;;;;;;21.90;3.75;;;16.70;99.90;;;;;;5009370;28;208019;-67
2022/08/01 06:14:16;;;;;;;22.30;3.97;;;16.80;99.90;;;;;;5040767;28;50892;-66
2022/08/01 06:16:42;;;;;;;26.33;3.83;;;16.80;99.90;;;;;;5022196;28;206472;-67
2022/08/01 06:19:09;;;;;;;23.95;3.60;;;16.80;99.90;;;;;;5058355;28;29722;-66
2022/08/01 06:21:35;;;;;;;18.00;3.40;;;16.90;99.90;;;;;;5004086;28;207897;-66
2022/08/01 06:24:01;;;;;;;19.95;3.85;;;16.90;99.90;;;;;;5040594;28;57529;-67
2022/08/01 06:26:27;;;;;;;23.20;3.83;;;16.90;99.90;;;;;;5006290;28;212394;-66
2022/08/01 06:28:53;;;;;;;22.00;3.33;;;16.90;99.90;;;;;;5038800;28;110373;-67
2022/08/01 06:31:19;;;;;;;21.23;4.28;;;16.90;99.90;;;;;;5007757;28;206195;-67
2022/08/01 06:33:45;;;;;;;24.70;4.20;;;16.90;99.90;;;;;;5060970;28;25386;-67
2022/08/01 06:36:11;;;;;;;27.67;4.10;;;17.00;99.90;;;;;;5021261;28;125049;-67
2022/08/01 06:38:37;;;;;;;21.42;3.95;;;16.90;99.90;;;;;;5037038;28;257144;-67
2022/08/01 06:41:03;;;;;;;23.63;3.53;;;17.00;99.90;;;;;;5015463;28;211082;-67
2022/08/01 06:43:30;;;;;;;23.27;4.03;;;17.00;99.90;;;;;;5035876;28;263476;-68
2022/08/01 06:45:56;;;;;;;21.38;3.42;;;16.90;99.90;;;;;;5025201;28;211314;-67
2022/08/01 06:48:22;;;;;;;21.63;3.80;;;16.90;99.90;;;;;;5039401;28;255723;-67
2022/08/01 06:50:48;;;;;;;26.80;3.85;;;16.90;99.90;;;;;;5003880;28;225170;-67
2022/08/01 06:53:14;;;;;;;23.83;3.70;;;16.90;99.90;;;;;;5043585;28;269037;-67
2022/08/01 06:55:41;;;;;;;24.95;3.90;;;16.90;99.90;;;;;;5001304;28;208662;-67
2022/08/01 06:58:07;;;;;;;22.15;3.50;;;17.00;99.90;;;;;;5053253;28;20044;-67
2022/08/01 07:00:33;;;;;;;23.15;4.20;;;17.00;99.90;;;;;;5017996;28;209578;-67
2022/08/01 07:03:00;;;;;;;22.02;3.92;;;17.00;99.90;;;;;;5049112;28;20056;-67
2022/08/01 07:05:26;;;;;;;25.52;4.13;;;17.00;99.90;;;;;;5027081;28;135146;-67
2022/08/01 07:07:52;;;;;;;27.40;4.15;;;17.00;99.90;;;;;;5008651;28;210013;-68
2022/08/01 07:10:18;;;;;;;20.50;3.60;;;17.10;99.90;;;;;;5037942;28;239490;-66
2022/08/01 07:12:45;;;;;;;19.20;3.50;;;17.10;99.90;;;;;;5008537;28;211359;-67
2022/08/01 07:15:11;;;;;;;22.42;3.67;;;17.10;99.90;;;;;;5050112;28;251328;-67
2022/08/01 07:17:42;;;;;;;18.38;3.65;;;17.10;99.90;;;;;;5015241;28;163424;-68
2022/08/01 07:20:10;;;;;;;17.33;3.30;;;17.10;99.90;;;;;;5059495;28;103942;-67
2022/08/01 07:22:37;;;;;;;17.88;3.47;;;17.10;99.90;;;;;;5008661;28;213547;-67
2022/08/01 07:25:05;;;;;;;19.33;3.35;;;17.20;99.90;;;;;;5039669;28;197876;-67
2022/08/01 07:27:31;;;;;;;26.00;3.40;;;17.10;99.90;;;;;;5011972;28;209073;-67
2022/08/01 07:29:57;;;;;;;21.92;3.53;;;17.20;99.90;;;;;;5042768;28;152504;-66
2022/08/01 07:32:24;;;;;;;20.05;3.78;;;17.30;99.90;;;;;;5011943;28;206202;-67
2022/08/01 07:34:50;;;;;;;20.40;3.45;;;17.30;99.90;;;;;;5041709;28;108864;-67
2022/08/01 07:37:16;;;;;;;21.73;3.42;;;17.40;99.90;;;;;;5008749;28;209926;-67
2022/08/01 07:39:42;;;;;;;21.20;3.30;;;17.50;99.90;;;;;;5037612;28;248609;-67
2022/08/01 07:42:09;;;;;;;19.98;3.17;;;17.60;99.90;;;;;;5009076;28;206294;-67
2022/08/01 07:44:36;;;;;;;19.05;2.97;;;17.70;99.90;;;;;;5054445;28;190096;-67
2022/08/01 07:47:03;;;;;;;21.63;3.00;;;17.70;99.90;;;;;;4995720;28;205822;-67
2022/08/01 07:49:29;;;;;;;19.83;3.30;;;17.80;99.90;;;;;;5039800;28;70535;-67
2022/08/01 07:51:55;;;;;;;22.08;3.13;;;17.70;99.90;;;;;;5011375;28;209623;-67
2022/08/01 07:54:23;;;;;;;19.40;2.83;;;17.90;99.90;;;;;;5055054;28;195962;-67
2022/08/01 07:56:50;;;;;;;19.25;3.35;;;18.00;99.90;;;;;;5009664;28;205566;-67
2022/08/01 07:59:22;;;;;;;18.35;3.00;;;18.20;99.90;;;;;;5023071;28;99894;-67
2022/08/01 08:01:51;;;;;;;19.98;2.65;;;18.30;99.90;;;;;;5018751;28;214162;-67
2022/08/01 08:04:18;;;;;;;16.42;2.92;;;18.40;99.90;;;;;;5045572;28;98472;-67
2022/08/01 08:06:47;;;;;;;17.88;2.85;;;18.50;99.90;;;;;;5025154;28;217378;-67
2022/08/01 08:09:14;;;;;;;15.23;2.85;;;18.80;99.90;;;;;;5037415;28;225585;-67
2022/08/01 08:11:43;;;;;;;16.90;2.88;;;19.10;99.90;;;;;;5020603;28;236521;-67
2022/08/01 08:14:09;;;;;;;16.55;2.60;;;19.50;99.90;;;;;;5037924;28;224329;-67
2022/08/01 08:16:35;;;;;;;18.23;2.70;;;19.60;99.90;;;;;;5027185;28;209733;-67
2022/08/01 08:19:01;;;;;;;15.98;3.17;;;19.70;99.90;;;;;;5057744;28;115047;-67
2022/08/01 08:21:28;;;;;;;17.40;2.47;;;20.20;99.90;;;;;;5011963;28;198214;-67
2022/08/01 08:26:39;;;;;;;15.82;2.78;;;20.80;99.90;;;;;;5022922;28;206586;-67
2022/08/01 08:29:05;;;;;;;15.90;2.78;;;21.20;99.90;;;;;;5060046;28;38709;-67
2022/08/01 08:31:31;;;;;;;14.63;2.65;;;21.20;99.90;;;;;;5021506;28;211849;-68
2022/08/01 08:33:57;;;;;;;18.88;3.00;;;21.20;99.90;;;;;;5053670;28;204003;-68
2022/08/01 08:36:23;;;;;;;13.52;2.30;;;21.10;99.90;;;;;;5009326;28;207677;-68
2022/08/01 08:38:49;;;;;;;13.98;2.50;;;21.10;99.90;;;;;;5039006;28;164181;-68
2022/08/01 08:41:16;;;;;;;15.40;2.40;;;21.10;99.90;;;;;;5015861;28;157744;-68
2022/08/01 08:43:43;;;;;;;14.77;2.78;;;21.30;99.90;;;;;;5041979;28;62966;-67
2022/08/01 08:46:11;;;;;;;17.38;2.90;;;21.60;99.90;;;;;;5001844;28;207085;-67
2022/08/01 08:48:40;;;;;;;20.83;2.55;;;22.10;99.90;;;;;;5023446;28;284488;-67
2022/08/01 08:51:08;;;;;;;15.10;2.35;;;22.40;99.90;;;;;;5017436;28;205888;-66
2022/08/01 08:53:35;;;;;;;16.42;2.75;;;22.90;99.90;;;;;;5033857;28;275145;-66
2022/08/01 08:56:06;;;;;;;11.85;1.92;;;23.20;99.90;;;;;;5008041;28;212081;-67
2022/08/01 08:58:37;;;;;;;;;;;23.30;99.90;;;;;;5037245;28;189484;-67
2022/08/01 09:01:08;;;;;;;12.40;2.20;;;23.00;99.70;;;;;;5023474;28;206254;-67
2022/08/01 09:03:34;;;;;;;13.02;2.13;;;22.60;99.90;;;;;;5019540;28;269733;-67
2022/08/01 09:06:01;;;;;;;13.27;2.22;;;22.50;99.90;;;;;;5007425;28;206176;-67
2022/08/01 09:08:27;;;;;;;12.57;2.13;;;22.80;99.90;;;;;;5049881;28;254772;-67
2022/08/01 09:10:53;;;;;;;11.57;1.90;;;23.10;99.90;;;;;;5011082;28;206477;-67
2022/08/01 09:13:19;;;;;;;11.82;2.10;;;23.20;99.90;;;;;;5031488;28;275732;-67
2022/08/01 09:15:49;;;;;;;13.17;2.20;;;23.30;99.90;;;;;;5007989;28;210518;-68
2022/08/01 09:18:26;;;;;;;;;;;23.40;99.90;;;;;;5035591;28;269862;-68
2022/08/01 09:21:07;;;;;;;14.88;2.30;;;23.50;98.00;;;;;;5018495;28;210441;-68
2022/08/01 09:23:39;;;;;;;11.63;2.17;;;23.70;98.70;;;;;;5050337;28;256621;-69
2022/08/01 09:26:06;;;;;;;14.95;2.53;;;23.70;99.90;;;;;;5024708;28;210271;-67
2022/08/01 09:28:33;;;;;;;11.37;1.77;;;23.90;99.90;;;;;;5033636;28;250650;-67
2022/08/01 09:31:05;;;;;;;17.30;2.22;;;24.20;99.70;;;;;;5010320;28;210614;-66
2022/08/01 09:33:53;;;;;;;12.90;2.28;;;24.30;97.60;;;;;;5033204;28;261442;-67
2022/08/01 09:36:25;;;;;;;14.05;1.85;;;24.00;95.30;;;;;;5042407;28;204694;-67
2022/08/01 09:38:54;;;;;;;11.07;1.92;;;24.00;99.50;;;;;;5032699;28;84472;-68
2022/08/01 09:41:30;;;;;;;15.18;2.30;;;24.50;98.60;;;;;;5005642;28;207966;-68
2022/08/01 09:43:57;;;;;;;9.90;1.80;;;24.70;97.00;;;;;;5036015;28;206674;-67
2022/08/01 09:46:24;;;;;;;11.32;2.20;;;24.90;97.80;;;;;;5015172;28;205975;-67
2022/08/01 09:49:02;;;;;;;11.98;2.22;;;24.70;97.40;;;;;;5033824;28;27954;-68
2022/08/01 09:51:34;;;;;;;11.32;2.00;;;24.90;95.20;;;;;;5037573;28;207018;-68
2022/08/01 09:54:04;;;;;;;12.70;1.90;;;24.90;94.70;;;;;;5050909;28;57591;-67
2022/08/01 09:56:45;;;;;;;12.27;1.90;;;24.50;96.00;;;;;;5016017;28;108272;-71
2022/08/01 09:59:12;;;;;;;13.65;2.40;;;24.30;94.40;;;;;;5051563;28;244528;-68
2022/08/01 10:01:56;;;;;;;9.38;1.65;;;24.50;96.00;;;;;;5013824;28;206761;-67
2022/08/01 10:04:24;;;;;;;10.98;1.80;;;24.90;93.70;;;;;;5045507;28;92365;-67
2022/08/01 10:06:53;;;;;;;10.73;1.83;;;25.00;96.40;;;;;;4988982;28;210123;-68
2022/08/01 10:09:31;;;;;;;11.17;1.77;;;25.20;94.40;;;;;;5038181;28;151477;-69
2022/08/01 10:11:59;;;;;;;12.23;1.80;;;25.10;92.20;;;;;;5003330;28;208011;-69
2022/08/01 10:14:27;;;;;;;12.68;2.10;;;25.20;94.80;;;;;;5058030;28;48745;-68
2022/08/01 10:16:55;;;;;;;9.45;1.80;;;25.40;92.20;;;;;;5020812;28;205375;-69
2022/08/01 10:19:23;;;;;;;9.73;1.73;;;25.10;93.40;;;;;;5052141;28;233770;-68
2022/08/01 10:21:54;;;;;;;13.88;2.00;;;25.40;93.40;;;;;;5013938;28;136679;-69
2022/08/01 10:24:20;;;;;;;;;;;25.40;91.60;;;;;;5042882;28;208853;-68
2022/08/01 10:26:54;;;;;;;10.35;1.77;;;25.60;92.10;;;;;;5022194;28;203096;-69
2022/08/01 10:29:23;;;;;;;11.23;1.77;;;25.70;90.20;;;;;;5045705;28;138583;-68
2022/08/01 10:31:50;;;;;;;11.40;1.75;;;25.90;93.40;;;;;;5010933;28;205890;-69
2022/08/01 10:34:19;;;;;;;10.27;1.60;;;26.00;93.20;;;;;;5034669;28;231073;-69
2022/08/01 10:36:48;;;;;;;9.38;1.80;;;26.50;92.90;;;;;;5019371;28;227776;-69
2022/08/01 10:39:15;;;;;;;8.55;1.70;;;26.50;89.00;;;;;;5058920;28;20055;-68
2022/08/01 10:41:41;;;;;;;8.93;1.63;;;26.30;90.70;;;;;;5005726;28;217800;-68
2022/08/01 10:44:08;;;;;;;10.00;1.88;;;25.90;90.10;;;;;;5034490;28;241598;-68
2022/08/01 10:46:38;;;;;;;10.63;1.67;;;25.90;90.00;;;;;;5021851;28;181649;-68
2022/08/01 10:49:10;;;;;;;12.00;1.75;;;26.20;90.20;;;;;;5030960;28;148641;-69
2022/08/01 10:51:41;;;;;;;11.25;2.00;;;26.20;88.40;;;;;;5008700;28;206799;-69
2022/08/01 10:54:07;;;;;;;;;;;25.90;86.60;;;;;;5042092;28;44045;-69
2022/08/01 10:56:42;;;;;;;10.98;1.60;;;26.10;84.20;;;;;;5008138;28;207939;-69
2022/08/01 10:59:09;;;;;;;10.77;1.70;;;25.90;87.90;;;;;;5036404;28;232943;-68
2022/08/01 11:01:35;;;;;;;10.27;1.90;;;26.20;89.70;;;;;;5020459;28;209929;-69
2022/08/01 11:04:04;;;;;;;10.45;1.80;;;26.50;85.00;;;;;;5020917;28;259497;-68
2022/08/01 11:06:32;;;;;;;10.60;2.00;;;26.60;89.50;;;;;;5000712;28;210631;-68
2022/08/01 11:09:20;;;;;;;13.40;1.90;;;26.70;87.20;;;;;;5049647;28;274847;-67
2022/08/01 11:12:08;;;;;;;13.40;1.83;;;26.70;86.80;;;;;;5013387;28;209631;-68
2022/08/01 11:14:57;;;;;;;10.20;1.70;;;26.70;84.70;;;;;;5033632;28;234504;-68
2022/08/01 11:17:50;;;;;;;10.40;1.77;;;26.90;81.20;;;;;;5038665;28;213155;-66
2022/08/01 11:20:18;;;;;;;9.68;1.65;;;26.90;78.80;;;;;;5076934;28;48744;-68
2022/08/01 11:23:06;;;;;;;9.80;1.70;;;26.70;82.20;;;;;;5025306;28;207685;-68
2022/08/01 11:25:39;;;;;;;13.38;1.70;;;26.80;80.90;;;;;;5014702;28;210456;-67
2022/08/01 11:28:14;;;;;;;13.07;1.80;;;26.90;82.60;;;;;;5051707;28;208022;-68
2022/08/01 11:30:41;;;;;;;10.68;1.73;;;26.30;76.30;;;;;;4994944;28;209586;-68
2022/08/01 11:33:07;;;;;;;9.93;1.50;;;26.10;80.80;;;;;;5068899;28;20048;-68
2022/08/01 11:35:35;;;;;;;9.50;1.75;;;25.80;81.10;;;;;;5002711;28;229376;-68
2022/08/01 11:38:30;;;;;;;9.55;1.70;;;25.70;79.70;;;;;;5026190;28;20528;-68
2022/08/01 11:41:25;;;;;;;8.52;1.75;;;25.60;78.70;;;;;;5007725;28;207612;-68
2022/08/01 11:44:08;;;;;;;14.40;2.13;;;25.60;80.70;;;;;;5061782;28;23506;-68
2022/08/01 11:46:56;;;;;;;9.82;1.70;;;25.90;80.40;;;;;;4998148;28;206720;-68
2022/08/01 11:49:37;;;;;;;10.00;1.70;;;26.40;79.60;;;;;;5053449;28;121719;-68
2022/08/01 11:52:06;;;;;;;9.07;1.60;;;26.60;80.60;;;;;;5026484;28;208307;-68
2022/08/01 11:54:38;;;;;;;10.82;1.67;;;26.60;78.90;;;;;;5054005;28;229655;-69
2022/08/01 11:57:13;;;;;;;9.27;1.58;;;26.20;79.80;;;;;;5039748;28;207163;-68
2022/08/01 11:59:48;;;;;;;9.05;1.92;;;26.10;79.30;;;;;;5022413;28;118574;-66
2022/08/01 12:02:19;;;;;;;9.15;1.45;;;26.20;79.20;;;;;;5009237;28;155905;-67
2022/08/01 12:04:53;;;;;;;11.80;1.80;;;26.30;75.80;;;;;;5038311;28;255587;-68
2022/08/01 12:07:20;;;;;;;12.15;1.90;;;26.50;76.10;;;;;;5012634;28;206540;-68
2022/08/01 12:09:47;;;;;;;12.55;1.80;;;26.60;78.40;;;;;;5060403;28;51068;-68
2022/08/01 12:12:17;;;;;;;9.43;1.50;;;26.60;75.40;;;;;;5013570;28;208496;-69
2022/08/01 12:14:45;;;;;;;9.73;1.60;;;26.10;75.70;;;;;;5042895;28;36805;-68
2022/08/01 12:17:11;;;;;;;9.27;1.70;;;25.90;77.50;;;;;;5024087;28;205909;-68
2022/08/01 12:19:38;;;;;;;11.52;1.63;;;25.80;76.50;;;;;;5055776;28;170599;-68
2022/08/01 12:22:08;;;;;;;8.48;1.70;;;25.90;74.60;;;;;;5008702;28;206853;-68
2022/08/01 12:24:36;;;;;;;10.13;1.60;;;26.40;77.20;;;;;;5053385;28;239916;-68
2022/08/01 12:27:03;;;;;;;9.38;1.55;;;26.60;75.50;;;;;;5014818;28;127840;-68
2022/08/01 12:29:40;;;;;;;11.75;1.83;;;27.10;76.50;;;;;;5054697;28;201806;-68
2022/08/01 12:32:39;;;;;;;11.20;1.80;;;27.70;70.90;;;;;;5027592;28;206549;-67
2022/08/01 12:35:16;;;;;;;10.10;1.48;;;27.90;71.30;;;;;;4973759;28;246781;-68
2022/08/01 12:37:47;;;;;;;8.93;1.50;;;28.20;72.30;;;;;;4944350;28;208407;-68
2022/08/01 12:40:26;;;;;;;10.07;1.60;;;28.40;74.60;;;;;;4976996;28;140816;-67
2022/08/01 12:42:54;;;;;;;10.60;1.70;;;28.20;70.80;;;;;;4961155;28;220043;-67
2022/08/01 12:45:24;;;;;;;10.95;1.48;;;28.20;69.10;;;;;;4955858;28;247444;-67
2022/08/01 12:47:51;;;;;;;;;;;28.30;70.80;;;;;;4948396;28;206915;-67